Time;durP1;ratioP1;P1;durP2;ratioP2;P2;SDS_P1;SDS_P2;PMS_P1;PMS_P2;Temp;Humidity;BMP_temperature;BMP_pressure;BME280_temperature;BME280_humidity;BME280_pressure;Samples;Min_cycle;Max_cycle;Signal;HPM_P1;HPM_P2
2022/02/27 00:01:22;;;;;;;;;;;;;;;1.52;53.92;100171.22;5071846;28;20386;-61
2022/02/27 00:03:47;;;;;;;;;;;;;;;1.51;54.54;100182.66;5071626;28;19975;-61
2022/02/27 00:06:13;;;;;;;;;;;;;;;1.52;55.01;100178.25;5059046;28;19974;-60
2022/02/27 00:08:38;;;;;;;;;;;;;;;1.55;54.54;100181.38;5063309;28;19924;-60
2022/02/27 00:11:04;;;;;;;;;;;;;;;1.55;54.66;100181.38;5071736;28;20366;-60
2022/02/27 00:13:29;;;;;;;;;;;;;;;1.51;54.88;100184.47;5071658;28;20304;-60
2022/02/27 00:15:55;;;;;;;;;;;;;;;1.49;55.01;100187.22;5050435;28;19936;-60
2022/02/27 00:18:21;;;;;;;;;;;;;;;1.50;54.56;100182.81;5051520;28;20532;-61
2022/02/27 00:20:47;;;;;;;;;;;;;;;1.43;55.17;100192.28;5051513;28;19929;-60
2022/02/27 00:23:13;;;;;;;;;;;;;;;1.38;55.07;100192.72;5055682;28;19931;-60
2022/02/27 00:25:38;;;;;;;;;;;;;;;1.40;55.36;100193.41;5055605;28;19971;-59
2022/02/27 00:28:04;;;;;;;;;;;;;;;1.39;55.32;100190.97;5070982;28;19954;-61
2022/02/27 00:30:30;;;;;;;;;;;;;;;1.39;55.96;100204.84;5074871;28;19924;-60
2022/02/27 00:32:55;;;;;;;;;;;;;;;1.31;56.05;100196.97;5075474;28;19925;-61
2022/02/27 00:35:21;;;;;;;;;;;;;;;1.35;55.65;100195.66;5075403;28;20431;-60
2022/02/27 00:37:46;;;;;;;;;;;;;;;1.39;55.19;100206.63;5075260;28;20026;-60
2022/02/27 00:40:12;;;;;;;;;;;;;;;1.42;55.25;100209.75;5075089;28;19924;-60
2022/02/27 00:42:38;;;;;;;;;;;;;;;1.29;56.11;100212.78;5073958;28;20030;-60
2022/02/27 00:45:04;;;;;;;;;;;;;;;1.28;56.60;100215.56;5073793;28;19931;-60
2022/02/27 00:47:29;;;;;;;;;;;;;;;1.28;56.21;100221.59;5055348;28;19928;-60
2022/02/27 00:49:56;;;;;;;;;;;;;;;1.33;56.27;100218.53;5054787;28;19932;-60
2022/02/27 00:52:22;;;;;;;;;;;;;;;1.32;56.17;100224.72;5055396;28;20407;-60
2022/02/27 00:54:51;;;;;;;;;;;;;;;1.30;56.59;100226.69;5055034;28;19925;-60
2022/02/27 00:57:17;;;;;;;;;;;;;;;1.25;56.30;100218.50;5055260;28;20413;-60
2022/02/27 00:59:44;;;;;;;;;;;;;;;1.29;56.83;100220.63;5053408;28;20469;-60
2022/02/27 01:02:10;;;;;;;;;;;;;;;1.22;57.21;100235.28;5055193;28;19935;-60
2022/02/27 01:04:36;;;;;;;;;;;;;;;1.10;56.61;100229.53;5057641;28;20287;-59
2022/02/27 01:07:01;;;;;;;;;;;;;;;1.19;56.97;100242.63;5073671;28;19933;-61
2022/02/27 01:09:27;;;;;;;;;;;;;;;1.24;56.36;100237.75;5073793;28;20394;-61
2022/02/27 01:11:53;;;;;;;;;;;;;;;1.16;57.10;100235.91;5074851;28;19935;-60
2022/02/27 01:14:18;;;;;;;;;;;;;;;1.08;56.79;100247.13;5072985;28;19924;-60
2022/02/27 01:16:44;;;;;;;;;;;;;;;1.08;57.64;100243.69;5074755;28;19932;-61
2022/02/27 01:19:09;;;;;;;;;;;;;;;1.13;57.72;100252.72;5074515;28;19931;-59
2022/02/27 01:21:35;;;;;;;;;;;;;;;1.09;57.85;100247.97;5074192;28;19950;-60
2022/02/27 01:24:00;;;;;;;;;;;;;;;1.05;58.34;100264.91;5067271;28;19925;-59
2022/02/27 01:26:26;;;;;;;;;;;;;;;1.04;57.84;100261.47;5034508;28;20322;-61
2022/02/27 01:28:52;;;;;;;;;;;;;;;1.03;57.77;100251.16;5033036;28;19929;-60
2022/02/27 01:31:19;;;;;;;;;;;;;;;1.04;57.45;100256.25;5033154;28;19929;-60
2022/02/27 01:33:44;;;;;;;;;;;;;;;1.06;58.11;100259.53;5048550;28;19925;-60
2022/02/27 01:36:10;;;;;;;;;;;;;;;0.98;57.96;100256.06;5052884;28;19935;-60
2022/02/27 01:38:35;;;;;;;;;;;;;;;1.05;58.14;100267.50;5052959;28;19932;-61
2022/02/27 01:41:01;;;;;;;;;;;;;;;0.99;58.68;100271.53;5052801;28;20390;-61
2022/02/27 01:43:27;;;;;;;;;;;;;;;0.92;58.56;100262.72;5052741;28;19931;-62
2022/02/27 01:45:53;;;;;;;;;;;;;;;0.86;58.81;100273.75;5053743;28;20318;-60
2022/02/27 01:48:19;;;;;;;;;;;;;;;0.90;58.63;100267.25;5063772;28;20320;-60
2022/02/27 01:50:47;;;;;;;;;;;;;;;0.86;59.52;100274.56;5074090;28;19935;-60
2022/02/27 01:53:12;;;;;;;;;;;;;;;0.93;59.31;100266.13;5073704;28;19924;-61
2022/02/27 01:55:38;;;;;;;;;;;;;;;0.87;59.89;100278.00;5073788;28;20018;-60
2022/02/27 01:58:03;;;;;;;;;;;;;;;0.93;59.28;100279.19;5072520;28;19924;-60
2022/02/27 02:00:29;;;;;;;;;;;;;;;0.80;60.64;100284.81;5070639;28;20015;-61
2022/02/27 02:02:55;;;;;;;;;;;;;;;0.67;60.34;100278.16;5073643;28;19924;-60
2022/02/27 02:05:22;;;;;;;;;;;;;;;0.68;60.90;100294.66;5015935;28;20310;-60
2022/02/27 02:07:47;;;;;;;;;;;;;;;0.77;60.45;100290.34;5033730;28;19925;-60
2022/02/27 02:10:13;;;;;;;;;;;;;;;0.86;60.76;100298.06;5063320;28;19924;-58
2022/02/27 02:12:43;;;;;;;;;;;;;;;0.78;60.91;100299.78;5056184;28;19979;-59
2022/02/27 02:15:10;;;;;;;;;;;;;;;0.70;61.31;100307.56;5072403;28;19946;-60
2022/02/27 02:17:36;;;;;;;;;;;;;;;0.65;61.91;100323.69;5072289;28;20018;-62
2022/02/27 02:20:03;;;;;;;;;;;;;;;0.57;61.96;100307.94;5072321;28;19938;-60
2022/02/27 02:22:31;;;;;;;;;;;;;;;0.58;62.11;100314.78;5066598;28;19982;-59
2022/02/27 02:24:57;;;;;;;;;;;;;;;0.52;62.73;100316.22;5051944;28;20310;-60
2022/02/27 02:27:22;;;;;;;;;;;;;;;0.51;63.09;100329.41;5052134;28;19936;-60
2022/02/27 02:29:48;;;;;;;;;;;;;;;0.45;63.06;100326.44;5051760;28;19925;-58
2022/02/27 02:32:14;;;;;;;;;;;;;;;0.47;62.92;100328.06;5053417;28;19928;-60
2022/02/27 02:34:39;;;;;;;;;;;;;;;0.45;62.79;100330.81;5051771;28;19929;-60
2022/02/27 02:37:05;;;;;;;;;;;;;;;0.36;63.05;100337.75;5035226;28;20309;-58
2022/02/27 02:39:31;;;;;;;;;;;;;;;0.29;63.16;100341.09;5052823;28;19925;-59
2022/02/27 02:41:57;;;;;;;;;;;;;;;0.19;63.04;100335.94;5051363;28;19936;-58
2022/02/27 02:44:27;;;;;;;;;;;;;;;0.16;62.70;100342.25;5035487;28;20432;-58
2022/02/27 02:46:53;;;;;;;;;;;;;;;0.22;63.23;100340.88;5050523;28;19928;-60
2022/02/27 02:49:18;;;;;;;;;;;;;;;0.14;62.56;100351.19;5053005;28;20416;-59
2022/02/27 02:51:49;;;;;;;;;;;;;;;0.00;62.65;100355.13;5051420;28;19935;-60
2022/02/27 02:54:15;;;;;;;;;;;;;;;0.01;63.09;100361.97;5051624;28;19925;-60
2022/02/27 02:56:41;;;;;;;;;;;;;;;0.00;63.39;100365.56;5052778;28;19929;-61
2022/02/27 02:59:07;;;;;;;;;;;;;;;-0.06;62.89;100361.75;5052540;28;20441;-62
2022/02/27 03:01:32;;;;;;;;;;;;;;;-0.08;63.04;100375.88;5066210;28;19929;-60
2022/02/27 03:03:58;;;;;;;;;;;;;;;-0.14;63.10;100368.63;5072110;28;19986;-60
2022/02/27 03:06:24;;;;;;;;;;;;;;;-0.07;63.38;100387.94;5072570;28;19929;-60
2022/02/27 03:08:49;;;;;;;;;;;;;;;-0.22;63.93;100386.78;5071863;28;19929;-60
2022/02/27 03:11:15;;;;;;;;;;;;;;;-0.17;63.54;100388.00;5072567;28;19928;-61
2022/02/27 03:13:41;;;;;;;;;;;;;;;-0.18;63.25;100396.75;5071050;28;19930;-61
2022/02/27 03:16:07;;;;;;;;;;;;;;;-0.14;63.49;100392.91;5072472;28;20019;-61
2022/02/27 03:18:32;;;;;;;;;;;;;;;-0.29;63.40;100405.59;5072214;28;19930;-59
2022/02/27 03:21:03;;;;;;;;;;;;;;;-0.31;63.55;100407.50;5053505;28;19929;-59
2022/02/27 03:23:30;;;;;;;;;;;;;;;-0.39;63.49;100409.97;5052028;28;19948;-60
2022/02/27 03:25:56;;;;;;;;;;;;;;;-0.50;63.46;100421.41;5052347;28;20016;-59
2022/02/27 03:28:21;;;;;;;;;;;;;;;-0.49;63.59;100419.63;5050805;28;19932;-59
2022/02/27 03:30:47;;;;;;;;;;;;;;;-0.62;63.03;100438.13;5051943;28;20066;-59
2022/02/27 03:33:12;;;;;;;;;;;;;;;-0.72;63.07;100432.94;5050752;28;20019;-60
2022/02/27 03:35:38;;;;;;;;;;;;;;;-0.81;62.12;100435.56;5051952;28;19921;-60
2022/02/27 03:38:03;;;;;;;;;;;;;;;-0.99;62.46;100438.84;5054337;28;19928;-60
2022/02/27 03:40:29;;;;;;;;;;;;;;;-1.04;62.54;100435.81;5071839;28;19924;-61
2022/02/27 03:42:55;;;;;;;;;;;;;;;-1.06;62.41;100461.19;5072109;28;19987;-61
2022/02/27 03:45:20;;;;;;;;;;;;;;;-1.23;61.96;100457.47;5070559;28;20035;-60
2022/02/27 03:47:47;;;;;;;;;;;;;;;-1.31;62.23;100464.28;5071884;28;20246;-62
2022/02/27 03:50:13;;;;;;;;;;;;;;;-1.39;62.34;100473.56;5065588;28;19929;-61
2022/02/27 03:52:39;;;;;;;;;;;;;;;-1.47;61.95;100482.97;5052240;28;20024;-60
2022/02/27 03:55:05;;;;;;;;;;;;;;;-1.56;62.25;100481.19;5051698;28;20016;-60
2022/02/27 03:57:30;;;;;;;;;;;;;;;-1.52;62.44;100480.78;5056743;28;19935;-60
2022/02/27 03:59:56;;;;;;;;;;;;;;;-1.66;62.16;100505.38;5070837;28;19928;-60
2022/02/27 04:02:21;;;;;;;;;;;;;;;-1.67;61.81;100497.72;5070920;28;19928;-59
2022/02/27 04:04:47;;;;;;;;;;;;;;;-1.62;61.80;100495.53;5071919;28;19924;-58
2022/02/27 04:07:13;;;;;;;;;;;;;;;-1.73;62.05;100501.66;5072115;28;19936;-60
2022/02/27 04:09:38;;;;;;;;;;;;;;;-1.80;61.98;100515.31;5071595;28;20440;-60
2022/02/27 04:12:04;;;;;;;;;;;;;;;-1.85;61.92;100520.91;5072076;28;20019;-60
2022/02/27 04:14:29;;;;;;;;;;;;;;;-1.89;62.10;100506.50;5070635;28;19924;-61
2022/02/27 04:16:55;;;;;;;;;;;;;;;-1.93;62.30;100512.91;5061192;28;19928;-59
2022/02/27 04:19:20;;;;;;;;;;;;;;;-1.98;62.00;100520.28;5050303;28;19924;-61
2022/02/27 04:21:47;;;;;;;;;;;;;;;-2.05;62.44;100532.97;5053590;28;19929;-60
2022/02/27 04:24:13;;;;;;;;;;;;;;;-2.03;62.15;100523.25;5069719;28;19928;-61
2022/02/27 04:26:38;;;;;;;;;;;;;;;-2.14;62.39;100528.53;5071604;28;19952;-59
2022/02/27 04:29:04;;;;;;;;;;;;;;;-2.20;62.44;100524.66;5070550;28;20283;-58
2022/02/27 04:31:29;;;;;;;;;;;;;;;-2.14;62.56;100536.31;5071251;28;20306;-59
2022/02/27 04:33:55;;;;;;;;;;;;;;;-2.09;62.08;100539.34;5053637;28;20039;-60
2022/02/27 04:36:20;;;;;;;;;;;;;;;-2.14;62.13;100537.16;5069964;28;20390;-60
2022/02/27 04:38:46;;;;;;;;;;;;;;;-2.20;62.28;100542.84;5071240;28;19925;-59
2022/02/27 04:41:18;;;;;;;;;;;;;;;-2.12;61.63;100539.59;5065090;28;19998;-60
2022/02/27 04:43:46;;;;;;;;;;;;;;;-2.08;61.60;100552.22;5067215;28;20027;-61
2022/02/27 04:46:12;;;;;;;;;;;;;;;-2.12;61.65;100553.44;5071413;28;19989;-60
2022/02/27 04:48:38;;;;;;;;;;;;;;;-2.07;61.76;100555.63;5071264;28;20015;-60
2022/02/27 04:51:03;;;;;;;;;;;;;;;-2.00;60.84;100562.00;5070957;28;19932;-59
2022/02/27 04:53:30;;;;;;;;;;;;;;;-2.13;61.46;100556.16;5057329;28;20461;-59
2022/02/27 04:55:55;;;;;;;;;;;;;;;-2.06;61.38;100568.50;5051212;28;19932;-58
2022/02/27 04:58:21;;;;;;;;;;;;;;;-2.03;60.97;100564.81;5049876;28;20310;-59
2022/02/27 05:00:46;;;;;;;;;;;;;;;-2.15;61.28;100558.84;5049558;28;20432;-61
2022/02/27 05:03:12;;;;;;;;;;;;;;;-2.16;61.48;100567.59;5051371;28;19932;-60
2022/02/27 05:05:37;;;;;;;;;;;;;;;-2.17;61.45;100565.16;5051064;28;19925;-59
2022/02/27 05:08:03;;;;;;;;;;;;;;;-2.25;61.54;100591.75;5051019;28;20032;-58
2022/02/27 05:10:28;;;;;;;;;;;;;;;-2.34;61.79;100569.13;5054264;28;19925;-59
2022/02/27 05:12:54;;;;;;;;;;;;;;;-2.36;62.13;100574.44;5061931;28;19947;-58
2022/02/27 05:15:19;;;;;;;;;;;;;;;-2.30;62.15;100579.13;5074452;28;19978;-59
2022/02/27 05:17:45;;;;;;;;;;;;;;;-2.33;61.69;100579.38;5062116;28;19975;-59
2022/02/27 05:20:11;;;;;;;;;;;;;;;-2.19;61.18;100591.25;5053123;28;19925;-58
2022/02/27 05:22:40;;;;;;;;;;;;;;;-2.05;60.66;100592.72;5054425;28;19935;-61
2022/02/27 05:25:06;;;;;;;;;;;;;;;-1.95;60.15;100611.78;5054223;28;20401;-60
2022/02/27 05:27:32;;;;;;;;;;;;;;;-1.89;59.79;100598.28;5054861;28;19933;-62
2022/02/27 05:29:57;;;;;;;;;;;;;;;-1.92;59.92;100601.13;5070602;28;19956;-61
2022/02/27 05:32:23;;;;;;;;;;;;;;;-1.88;59.03;100630.31;5060882;28;19933;-59
2022/02/27 05:34:48;;;;;;;;;;;;;;;-1.85;58.72;100604.06;5054215;28;19932;-60
2022/02/27 05:37:14;;;;;;;;;;;;;;;-1.91;58.06;100620.16;5052600;28;19932;-59
2022/02/27 05:39:39;;;;;;;;;;;;;;;-1.88;57.23;100644.13;5018959;28;20062;-61
2022/02/27 05:42:06;;;;;;;;;;;;;;;-1.92;56.86;100614.13;5052994;28;20215;-59
2022/02/27 05:44:33;;;;;;;;;;;;;;;-1.95;57.14;100627.38;5053808;28;20453;-60
2022/02/27 05:46:59;;;;;;;;;;;;;;;-1.97;57.26;100611.09;5052889;28;19983;-60
2022/02/27 05:49:24;;;;;;;;;;;;;;;-1.97;56.95;100634.50;5036002;28;19967;-62
2022/02/27 05:51:50;;;;;;;;;;;;;;;-1.86;56.97;100631.81;5054587;28;19936;-59
2022/02/27 05:54:15;;;;;;;;;;;;;;;-1.74;56.46;100632.56;5052886;28;19925;-62
2022/02/27 05:56:41;;;;;;;;;;;;;;;-1.83;56.74;100621.16;5058097;28;20436;-62
2022/02/27 05:59:07;;;;;;;;;;;;;;;-1.74;56.70;100637.78;5074004;28;19947;-61
2022/02/27 06:01:32;;;;;;;;;;;;;;;-1.57;56.11;100632.97;5071932;28;19935;-60
2022/02/27 06:03:58;;;;;;;;;;;;;;;-1.53;55.75;100636.94;5073531;28;19974;-62
2022/02/27 06:06:23;;;;;;;;;;;;;;;-1.42;55.44;100636.88;5073742;28;19928;-60
2022/02/27 06:08:49;;;;;;;;;;;;;;;-1.46;55.51;100643.28;5070667;28;19924;-59
2022/02/27 06:11:14;;;;;;;;;;;;;;;-1.53;55.01;100650.78;5053733;28;19932;-61
2022/02/27 06:13:40;;;;;;;;;;;;;;;-1.61;53.97;100666.19;5053446;28;19956;-60
2022/02/27 06:16:05;;;;;;;;;;;;;;;-1.79;54.64;100676.34;5054309;28;19929;-59
2022/02/27 06:18:31;;;;;;;;;;;;;;;-1.80;54.85;100666.88;5072938;28;20340;-59
2022/02/27 06:20:56;;;;;;;;;;;;;;;-1.68;54.53;100657.25;5071749;28;20385;-57
2022/02/27 06:23:22;;;;;;;;;;;;;;;-1.54;54.15;100666.50;5062435;28;19929;-59
2022/02/27 06:25:48;;;;;;;;;;;;;;;-1.53;53.88;100668.16;5053155;28;19929;-58
2022/02/27 06:28:13;;;;;;;;;;;;;;;-1.68;53.91;100663.25;5052787;28;19959;-61
2022/02/27 06:30:39;;;;;;;;;;;;;;;-1.51;53.97;100677.47;5054227;28;19932;-58
2022/02/27 06:33:04;;;;;;;;;;;;;;;-1.45;53.98;100670.94;5056035;28;19924;-57
2022/02/27 06:35:30;;;;;;;;;;;;;;;-1.27;53.32;100674.59;5071846;28;19924;-57
2022/02/27 06:37:55;;;;;;;;;;;;;;;-1.14;53.26;100677.00;5072889;28;20455;-58
2022/02/27 06:40:21;;;;;;;;;;;;;;;-1.03;52.78;100676.91;5070878;28;19924;-58
2022/02/27 06:42:46;;;;;;;;;;;;;;;-0.81;52.22;100678.50;5066176;28;19990;-62
2022/02/27 06:45:12;;;;;;;;;;;;;;;-0.99;52.42;100691.31;5056356;28;20401;-60
2022/02/27 06:47:38;;;;;;;;;;;;;;;-1.00;52.55;100692.28;5059792;28;19928;-61
2022/02/27 06:50:04;;;;;;;;;;;;;;;-0.94;52.29;100702.16;5051337;28;20482;-61
2022/02/27 06:52:30;;;;;;;;;;;;;;;-1.05;52.46;100697.03;5070786;28;19929;-59
2022/02/27 06:54:55;;;;;;;;;;;;;;;-0.86;51.68;100696.28;5072825;28;20293;-58
2022/02/27 06:57:21;;;;;;;;;;;;;;;-0.93;52.48;100695.16;5073033;28;19976;-58
2022/02/27 06:59:46;;;;;;;;;;;;;;;-0.98;51.75;100713.75;5072734;28;19971;-59
2022/02/27 07:02:12;;;;;;;;;;;;;;;-0.99;51.93;100706.09;5072778;28;19932;-59
2022/02/27 07:04:38;;;;;;;;;;;;;;;-0.92;52.02;100708.03;5071267;28;20376;-60
2022/02/27 07:07:03;;;;;;;;;;;;;;;-0.90;51.90;100723.53;5072377;28;19936;-57
2022/02/27 07:09:29;;;;;;;;;;;;;;;-0.73;51.71;100711.69;5071016;28;19971;-61
2022/02/27 07:11:54;;;;;;;;;;;;;;;-0.62;51.39;100710.75;5070464;28;19935;-59
2022/02/27 07:14:21;;;;;;;;;;;;;;;-0.34;51.29;100717.81;5070752;28;20381;-60
2022/02/27 07:16:46;;;;;;;;;;;;;;;-0.28;50.73;100730.31;5072053;28;19974;-61
2022/02/27 07:19:12;;;;;;;;;;;;;;;-0.16;50.16;100719.78;5070447;28;20023;-58
2022/02/27 07:21:37;;;;;;;;;;;;;;;-0.07;50.65;100721.56;5061697;28;19996;-58
2022/02/27 07:24:03;;;;;;;;;;;;;;;0.04;50.01;100731.06;5068827;28;19931;-62
2022/02/27 07:26:29;;;;;;;;;;;;;;;-0.05;50.26;100732.69;5072141;28;19929;-61
2022/02/27 07:28:54;;;;;;;;;;;;;;;0.08;49.54;100737.63;5072385;28;19963;-60
2022/02/27 07:31:20;;;;;;;;;;;;;;;0.01;49.66;100733.94;5037298;28;19924;-63
2022/02/27 07:33:45;;;;;;;;;;;;;;;-0.03;50.04;100756.81;5049837;28;19931;-64
2022/02/27 07:36:11;;;;;;;;;;;;;;;-0.26;49.96;100746.66;5050958;28;19982;-63
2022/02/27 07:38:37;;;;;;;;;;;;;;;-0.16;50.74;100743.22;5053145;28;19932;-62
2022/02/27 07:41:02;;;;;;;;;;;;;;;-0.16;50.40;100740.63;5059120;28;20042;-61
2022/02/27 07:43:28;;;;;;;;;;;;;;;-0.12;49.83;100739.38;5057922;28;20032;-65
2022/02/27 07:45:54;;;;;;;;;;;;;;;0.04;49.84;100747.53;5055032;28;19928;-63
2022/02/27 07:48:19;;;;;;;;;;;;;;;0.08;49.24;100758.50;5071793;28;19925;-64
2022/02/27 07:50:45;;;;;;;;;;;;;;;-0.15;49.22;100737.06;5059218;28;19935;-63
2022/02/27 07:53:11;;;;;;;;;;;;;;;-0.15;49.49;100755.28;5071771;28;20345;-61
2022/02/27 07:55:36;;;;;;;;;;;;;;;-0.10;49.31;100746.13;5060393;28;19931;-63
2022/02/27 07:58:02;;;;;;;;;;;;;;;0.10;48.78;100738.34;5058637;28;20413;-62
2022/02/27 08:00:27;;;;;;;;;;;;;;;0.21;48.60;100740.81;5069625;28;19943;-64
2022/02/27 08:02:53;;;;;;;;;;;;;;;0.26;48.63;100756.03;5069924;28;19924;-62
2022/02/27 08:05:19;;;;;;;;;;;;;;;0.32;47.53;100750.25;5052779;28;19925;-63
2022/02/27 08:07:45;;;;;;;;;;;;;;;0.23;47.78;100750.13;5071029;28;20031;-60
2022/02/27 08:10:11;;;;;;;;;;;;;;;0.41;48.22;100747.69;5066661;28;20023;-63
2022/02/27 08:12:40;;;;;;;;;;;;;;;0.53;47.68;100732.69;5059362;28;20429;-61
2022/02/27 08:15:05;;;;;;;;;;;;;;;0.62;47.42;100741.47;5049877;28;19994;-63
2022/02/27 08:17:31;;;;;;;;;;;;;;;0.74;46.63;100740.34;5065889;28;20378;-62
2022/02/27 08:19:57;;;;;;;;;;;;;;;0.67;47.00;100732.25;5033584;28;19935;-62
2022/02/27 08:22:22;;;;;;;;;;;;;;;0.80;46.57;100736.38;5068387;28;20015;-62
2022/02/27 08:24:48;;;;;;;;;;;;;;;0.63;46.94;100751.75;5071073;28;20489;-61
2022/02/27 08:27:13;;;;;;;;;;;;;;;0.73;46.98;100745.69;5071320;28;20057;-60
2022/02/27 08:29:39;;;;;;;;;;;;;;;0.81;46.62;100746.66;5064668;28;19970;-59
2022/02/27 08:32:05;;;;;;;;;;;;;;;0.85;46.67;100737.59;5051697;28;20428;-63
2022/02/27 08:34:30;;;;;;;;;;;;;;;0.88;46.53;100749.50;5051361;28;19924;-61
2022/02/27 08:36:56;;;;;;;;;;;;;;;0.83;46.81;100736.09;5050119;28;19936;-59
2022/02/27 08:39:21;;;;;;;;;;;;;;;0.97;47.23;100758.28;5034339;28;19964;-61
2022/02/27 08:41:47;;;;;;;;;;;;;;;0.93;45.93;100751.72;5050196;28;20019;-59
2022/02/27 08:44:13;;;;;;;;;;;;;;;0.99;45.62;100757.19;5072877;28;19924;-61
2022/02/27 08:46:39;;;;;;;;;;;;;;;1.04;45.33;100746.34;5075186;28;19974;-62
2022/02/27 08:49:06;;;;;;;;;;;;;;;0.91;46.05;100738.78;5071660;28;19975;-63
2022/02/27 08:51:32;;;;;;;;;;;;;;;1.00;46.53;100753.63;5054289;28;20306;-61
2022/02/27 08:53:57;;;;;;;;;;;;;;;0.82;46.02;100765.75;5053750;28;19925;-60
2022/02/27 08:56:23;;;;;;;;;;;;;;;0.78;45.72;100764.38;5055394;28;20283;-60
2022/02/27 08:58:49;;;;;;;;;;;;;;;1.05;45.47;100743.56;5053632;28;19932;-61
2022/02/27 09:01:14;;;;;;;;;;;;;;;0.97;45.67;100773.94;5055246;28;19944;-60
2022/02/27 09:03:40;;;;;;;;;;;;;;;0.93;45.22;100760.38;5053506;28;19987;-62
2022/02/27 09:06:05;;;;;;;;;;;;;;;0.67;46.51;100755.72;5053432;28;20409;-64
2022/02/27 09:08:31;;;;;;;;;;;;;;;0.73;46.76;100763.97;5054806;28;19925;-60
2022/02/27 09:10:57;;;;;;;;;;;;;;;0.93;46.64;100772.59;5054562;28;19979;-61
2022/02/27 09:13:22;;;;;;;;;;;;;;;1.09;45.43;100757.19;5054864;28;19967;-62
2022/02/27 09:15:48;;;;;;;;;;;;;;;1.45;45.32;100763.34;5054655;28;20445;-60
2022/02/27 09:18:13;;;;;;;;;;;;;;;1.52;45.28;100756.56;5054728;28;20003;-58
2022/02/27 09:20:39;;;;;;;;;;;;;;;1.25;45.83;100777.47;5054281;28;19924;-63
2022/02/27 09:23:05;;;;;;;;;;;;;;;1.23;45.68;100766.31;5054291;28;19925;-62
2022/02/27 09:25:30;;;;;;;;;;;;;;;1.44;46.00;100776.56;5054542;28;19926;-61
2022/02/27 09:27:56;;;;;;;;;;;;;;;1.30;45.61;100772.63;5052528;28;19924;-63
2022/02/27 09:30:21;;;;;;;;;;;;;;;1.34;46.23;100785.25;5053513;28;20315;-64
2022/02/27 09:32:47;;;;;;;;;;;;;;;1.12;45.40;100789.06;5052378;28;19924;-63
2022/02/27 09:35:13;;;;;;;;;;;;;;;0.92;45.86;100795.28;5049372;28;19925;-64
2022/02/27 09:37:38;;;;;;;;;;;;;;;1.02;45.87;100788.22;5053553;28;19929;-63
2022/02/27 09:40:05;;;;;;;;;;;;;;;1.04;46.13;100791.53;5053784;28;20025;-63
2022/02/27 09:42:31;;;;;;;;;;;;;;;0.99;45.90;100793.75;5054185;28;19929;-63
2022/02/27 09:44:57;;;;;;;;;;;;;;;1.02;45.46;100792.63;5053823;28;19969;-63
2022/02/27 09:47:23;;;;;;;;;;;;;;;1.03;45.99;100779.47;5085843;28;19932;-63
2022/02/27 09:49:48;;;;;;;;;;;;;;;1.23;45.53;100779.38;5085429;28;20348;-63
2022/02/27 09:52:14;;;;;;;;;;;;;;;1.43;45.15;100773.13;5053984;28;20446;-65
2022/02/27 09:54:40;;;;;;;;;;;;;;;1.59;45.20;100778.56;5052737;28;20089;-61
2022/02/27 09:57:06;;;;;;;;;;;;;;;1.36;44.42;100798.19;5085712;28;20027;-62
2022/02/27 09:59:31;;;;;;;;;;;;;;;1.00;45.47;100782.34;5053115;28;20026;-61
2022/02/27 10:02:03;;;;;;;;;;;;;;;0.88;46.27;100783.44;5053721;28;20026;-62
2022/02/27 10:04:48;;;;;;;;;;;;;;;0.78;45.79;100809.56;5052587;28;19993;-62
2022/02/27 10:07:15;;;;;;;;;;;;;;;0.52;46.41;100787.63;5053538;28;19928;-64
2022/02/27 10:09:41;;;;;;;;;;;;;;;0.29;46.52;100789.66;5053045;28;19928;-61
2022/02/27 10:12:13;;;;;;;;;;;;;;;0.25;46.73;100777.88;5053116;28;20016;-61
2022/02/27 10:14:38;;;;;;;;;;;;;;;0.28;46.43;100782.81;5053208;28;19948;-63
2022/02/27 10:17:04;;;;;;;;;;;;;;;0.20;46.67;100781.69;5053212;28;19924;-64
2022/02/27 10:19:32;;;;;;;;;;;;;;;0.17;47.20;100775.94;5052364;28;19925;-63
2022/02/27 10:21:58;;;;;;;;;;;;;;;0.10;46.99;100790.47;5085219;28;19929;-62
2022/02/27 10:24:23;;;;;;;;;;;;;;;0.10;47.13;100788.69;5052911;28;19947;-63
2022/02/27 10:26:51;;;;;;;;;;;;;;;0.06;47.07;100774.28;5053246;28;19928;-61
2022/02/27 10:29:21;;;;;;;;;;;;;;;0.17;47.07;100770.72;5084827;28;19978;-62
2022/02/27 10:31:48;;;;;;;;;;;;;;;0.20;47.39;100779.09;5053075;28;19956;-62
2022/02/27 10:34:21;;;;;;;;;;;;;;;0.15;47.34;100780.47;5052581;28;19924;-62
2022/02/27 10:36:53;;;;;;;;;;;;;;;0.11;47.33;100773.88;5052857;28;19936;-63
2022/02/27 10:39:32;;;;;;;;;;;;;;;-0.04;47.16;100770.81;5052610;28;19925;-62
2022/02/27 10:42:05;;;;;;;;;;;;;;;-0.06;47.23;100785.75;5051443;28;19935;-63
2022/02/27 10:44:30;;;;;;;;;;;;;;;-0.01;47.18;100788.81;5052354;28;20028;-61
2022/02/27 10:47:09;;;;;;;;;;;;;;;-0.04;47.45;100781.25;5052854;28;20035;-63
2022/02/27 10:49:34;;;;;;;;;;;;;;;0.13;47.03;100782.38;5052322;28;19932;-60
2022/02/27 10:52:10;;;;;;;;;;;;;;;0.12;47.12;100780.72;5052259;28;19928;-63
2022/02/27 10:54:40;;;;;;;;;;;;;;;0.03;46.61;100787.59;5052559;28;19928;-63
2022/02/27 10:57:05;;;;;;;;;;;;;;;0.04;47.00;100777.97;5052758;28;19929;-63
2022/02/27 10:59:31;;;;;;;;;;;;;;;0.12;47.35;100793.75;5052559;28;20390;-63
2022/02/27 11:01:56;;;;;;;;;;;;;;;-0.10;48.00;100787.00;5084608;28;19928;-62
2022/02/27 11:04:22;;;;;;;;;;;;;;;-0.20;48.87;100799.19;5051947;28;19948;-64
2022/02/27 11:06:48;;;;;;;;;;;;;;;-0.08;47.75;100785.91;5086241;28;19929;-60
2022/02/27 11:09:15;;;;;;;;;;;;;;;-0.11;48.54;100787.97;5054278;28;19932;-61
2022/02/27 11:11:40;;;;;;;;;;;;;;;0.02;48.50;100782.50;5051713;28;19929;-61
2022/02/27 11:14:07;;;;;;;;;;;;;;;-0.04;49.02;100787.28;5052385;28;19970;-62
2022/02/27 11:16:33;;;;;;;;;;;;;;;-0.02;48.37;100789.78;5051971;28;19928;-61
2022/02/27 11:18:58;;;;;;;;;;;;;;;-0.10;48.53;100790.44;5051490;28;19932;-60
2022/02/27 11:21:24;;;;;;;;;;;;;;;-0.05;49.06;100784.81;5084305;28;19948;-62
2022/02/27 11:23:50;;;;;;;;;;;;;;;-0.05;48.52;100793.47;5083946;28;19925;-61
2022/02/27 11:26:17;;;;;;;;;;;;;;;-0.13;48.50;100802.91;5051975;28;19970;-64
2022/02/27 11:28:42;;;;;;;;;;;;;;;-0.07;49.73;100790.16;5051764;28;19929;-63
2022/02/27 11:31:08;;;;;;;;;;;;;;;-0.16;48.39;100811.00;5051810;28;19936;-63
2022/02/27 11:33:33;;;;;;;;;;;;;;;-0.16;48.91;100790.16;5051553;28;19925;-65
2022/02/27 11:36:00;;;;;;;;;;;;;;;-0.17;48.81;100793.72;5050502;28;19951;-63
2022/02/27 11:38:28;;;;;;;;;;;;;;;-0.12;48.42;100788.91;5051437;28;19924;-65
2022/02/27 11:40:57;;;;;;;;;;;;;;;-0.21;48.81;100789.72;5051970;28;19951;-63
2022/02/27 11:43:57;;;;;;;;;;;;;;;-0.10;49.10;100787.00;5050211;28;19983;-64
2022/02/27 11:46:43;;;;;;;;;;;;;;;-0.11;49.15;100786.19;5051688;28;19939;-63
2022/02/27 11:49:14;;;;;;;;;;;;;;;-0.05;48.71;100793.47;5050031;28;19950;-65
2022/02/27 11:51:44;;;;;;;;;;;;;;;-0.17;49.31;100784.13;5051876;28;19932;-63
2022/02/27 11:54:10;;;;;;;;;;;;;;;-0.10;49.52;100795.66;5050602;28;19924;-62
2022/02/27 11:56:38;;;;;;;;;;;;;;;-0.15;49.00;100797.00;5051601;28;20027;-62
2022/02/27 11:59:04;;;;;;;;;;;;;;;-0.17;48.92;100806.75;5051614;28;20361;-64
2022/02/27 12:01:48;;;;;;;;;;;;;;;-0.22;48.59;100798.50;5066610;28;20302;-61
2022/02/27 12:04:19;;;;;;;;;;;;;;;-0.15;48.92;100795.22;5051471;28;19924;-64
2022/02/27 12:06:58;;;;;;;;;;;;;;;-0.15;48.83;100797.00;5051595;28;19936;-64
2022/02/27 12:09:24;;;;;;;;;;;;;;;-0.28;48.64;100844.16;5051676;28;19950;-63
2022/02/27 12:11:50;;;;;;;;;;;;;;;-0.27;47.78;100810.13;5051097;28;19928;-63
2022/02/27 12:14:15;;;;;;;;;;;;;;;-0.32;48.27;100801.91;5051605;28;20310;-65
2022/02/27 12:16:47;;;;;;;;;;;;;;;-0.38;48.61;100815.47;5050913;28;20310;-61
2022/02/27 12:19:26;;;;;;;;;;;;;;;-0.34;48.80;100803.81;5054458;28;19928;-63
2022/02/27 12:21:57;;;;;;;;;;;;;;;-0.27;48.75;100791.88;5055485;28;19928;-64
2022/02/27 12:24:27;;;;;;;;;;;;;;;-0.35;48.80;100819.59;5055374;28;20472;-62
2022/02/27 12:26:59;;;;;;;;;;;;;;;-0.33;48.39;100800.22;5055552;28;19933;-61
2022/02/27 12:29:33;;;;;;;;;;;;;;;-0.35;48.92;100804.78;5087498;28;19974;-64
2022/02/27 12:32:03;;;;;;;;;;;;;;;-0.37;48.86;100801.47;5054959;28;19936;-62
2022/02/27 12:34:28;;;;;;;;;;;;;;;-0.46;49.01;100810.06;5054082;28;19925;-64
2022/02/27 12:36:59;;;;;;;;;;;;;;;-0.43;49.18;100799.38;5087418;28;19936;-62